createdAt,value
2023-02-22T00:01:50.981Z,3.88
2023-02-22T00:04:21.213Z,3.60
2023-02-22T00:06:49.355Z,3.63
2023-02-22T00:09:20.700Z,3.78
2023-02-22T00:11:48.816Z,3.33
2023-02-22T00:14:20.412Z,4.10
2023-02-22T00:16:47.339Z,2.88
2023-02-22T00:19:14.027Z,3.35
2023-02-22T00:21:40.624Z,2.67
2023-02-22T00:24:23.107Z,3.20
2023-02-22T00:26:57.815Z,2.97
2023-02-22T00:29:25.306Z,3.63
2023-02-22T00:31:52.392Z,3.65
2023-02-22T00:34:19.237Z,3.50
2023-02-22T00:36:49.754Z,3.28
2023-02-22T00:39:16.667Z,3.25
2023-02-22T00:41:43.701Z,3.28
2023-02-22T00:44:10.666Z,3.03
2023-02-22T00:46:37.481Z,3.63
2023-02-22T00:49:05.365Z,3.80
2023-02-22T00:51:31.991Z,3.63
2023-02-22T00:53:58.623Z,2.95
2023-02-22T00:56:25.549Z,2.78
2023-02-22T00:58:52.105Z,3.65
2023-02-22T01:01:19.063Z,3.75
2023-02-22T01:03:46.055Z,4.07
2023-02-22T01:06:12.857Z,4.20
2023-02-22T01:08:45.101Z,6.07
2023-02-22T01:13:38.723Z,4.90
2023-02-22T01:16:08.367Z,3.78
2023-02-22T01:18:38.057Z,4.65
2023-02-22T01:21:05.441Z,4.68
2023-02-22T01:23:32.239Z,4.95
2023-02-22T01:25:58.996Z,4.22
2023-02-22T01:28:25.721Z,4.32
2023-02-22T01:30:52.680Z,5.82
2023-02-22T01:33:19.300Z,6.28
2023-02-22T01:35:46.967Z,7.43
2023-02-22T01:38:14.447Z,7.95
2023-02-22T01:40:43.071Z,7.63
2023-02-22T01:43:31.123Z,7.40
2023-02-22T01:46:03.254Z,8.75
2023-02-22T01:50:56.304Z,6.72
2023-02-22T01:53:32.420Z,5.80
2023-02-22T01:56:00.388Z,5.88
2023-02-22T01:58:30.008Z,5.30
2023-02-22T02:00:57.675Z,5.07
2023-02-22T02:03:29.780Z,4.50
2023-02-22T02:06:01.108Z,3.78
2023-02-22T02:08:49.834Z,3.70
2023-02-22T02:11:20.162Z,3.30
2023-02-22T02:13:49.685Z,4.22
2023-02-22T02:16:16.367Z,4.00
2023-02-22T02:18:43.104Z,4.18
2023-02-22T02:21:39.730Z,4.47
2023-02-22T02:24:24.345Z,3.53
2023-02-22T02:27:09.273Z,5.32
2023-02-22T02:29:56.040Z,4.45
2023-02-22T02:32:51.784Z,5.28
2023-02-22T02:35:43.703Z,5.15
2023-02-22T02:38:30.628Z,4.70
2023-02-22T02:41:13.765Z,6.13
2023-02-22T02:43:53.573Z,5.53
2023-02-22T02:46:31.776Z,5.93
2023-02-22T02:49:04.615Z,8.55
2023-02-22T02:51:38.912Z,10.27
2023-02-22T02:54:07.531Z,8.02
2023-02-22T02:56:34.894Z,9.88
2023-02-22T02:59:01.536Z,7.40
2023-02-22T03:02:00.579Z,7.85
2023-02-22T03:05:10.712Z,7.55
2023-02-22T03:08:01.680Z,8.50
2023-02-22T03:10:40.349Z,10.00
2023-02-22T03:13:40.253Z,10.57
2023-02-22T03:16:19.275Z,12.27
2023-02-22T03:19:05.046Z,10.55
2023-02-22T03:21:55.584Z,12.70
2023-02-22T03:24:28.665Z,12.20
2023-02-22T03:27:03.748Z,13.68
2023-02-22T03:29:36.733Z,12.70
2023-02-22T03:32:07.760Z,11.23
2023-02-22T03:34:38.725Z,12.73
2023-02-22T03:37:22.097Z,14.02
2023-02-22T03:39:54.218Z,12.10
2023-02-22T03:42:34.826Z,11.48
2023-02-22T03:45:05.188Z,15.93
2023-02-22T03:47:40.724Z,9.38
2023-02-22T03:50:15.798Z,10.60
2023-02-22T03:52:43.942Z,9.80
2023-02-22T03:55:12.773Z,10.48
2023-02-22T03:57:44.006Z,8.65
2023-02-22T04:00:14.845Z,7.13
2023-02-22T04:02:41.815Z,8.82
2023-02-22T04:05:08.870Z,15.45
2023-02-22T04:07:35.922Z,9.60
2023-02-22T04:10:03.708Z,8.38
2023-02-22T04:12:30.320Z,8.80
2023-02-22T04:14:56.927Z,8.68
2023-02-22T04:17:23.557Z,10.07
2023-02-22T04:19:50.290Z,9.75
2023-02-22T04:22:17.411Z,10.02
2023-02-22T04:24:44.111Z,10.55
2023-02-22T04:27:11.018Z,12.30
2023-02-22T04:29:37.642Z,11.32
2023-02-22T04:32:04.599Z,9.85
2023-02-22T04:34:31.182Z,9.85
2023-02-22T04:36:57.818Z,9.68
2023-02-22T04:39:24.544Z,10.50
2023-02-22T04:41:51.338Z,7.53
2023-02-22T04:44:17.916Z,9.52
2023-02-22T04:46:46.771Z,9.85
2023-02-22T04:49:13.608Z,9.57
2023-02-22T04:51:41.285Z,11.32
2023-02-22T04:54:08.511Z,19.25
2023-02-22T04:56:35.160Z,17.52
2023-02-22T04:59:01.945Z,15.07
2023-02-22T05:01:33.704Z,17.35
2023-02-22T05:04:02.971Z,22.98
2023-02-22T05:06:29.619Z,13.25
2023-02-22T05:08:56.298Z,15.52
2023-02-22T05:11:23.338Z,6.35
2023-02-22T05:13:50.374Z,10.25
2023-02-22T05:16:17.427Z,10.77
2023-02-22T05:18:44.060Z,8.18
2023-02-22T05:21:10.810Z,7.47
2023-02-22T05:23:37.445Z,6.95
2023-02-22T05:26:04.087Z,7.65
2023-02-22T05:28:30.705Z,8.23
2023-02-22T05:30:57.419Z,8.43
2023-02-22T05:33:24.090Z,7.18
2023-02-22T05:35:50.744Z,6.78
2023-02-22T05:38:17.364Z,7.20
2023-02-22T05:40:44.493Z,7.22
2023-02-22T05:43:11.117Z,5.90
2023-02-22T05:45:37.716Z,6.15
2023-02-22T05:48:04.614Z,6.18
2023-02-22T05:50:33.186Z,7.32
2023-02-22T05:52:59.959Z,6.85
2023-02-22T05:55:26.963Z,7.55
2023-02-22T05:57:53.808Z,11.23
2023-02-22T06:00:26.402Z,14.45
2023-02-22T06:03:08.166Z,14.95
2023-02-22T06:05:35.458Z,13.90
2023-02-22T06:08:03.310Z,14.75
2023-02-22T06:10:29.995Z,14.95
2023-02-22T06:12:57.491Z,14.30
2023-02-22T06:15:25.539Z,12.75
2023-02-22T06:17:52.889Z,10.63
2023-02-22T06:20:23.186Z,11.00
2023-02-22T06:22:53.700Z,10.93
2023-02-22T06:25:24.068Z,8.38
2023-02-22T06:27:51.054Z,6.72
2023-02-22T06:30:20.611Z,7.15
2023-02-22T06:32:47.291Z,6.68
2023-02-22T06:35:15.107Z,7.95
2023-02-22T06:37:41.727Z,6.75
2023-02-22T06:40:11.276Z,7.20
2023-02-22T06:42:39.095Z,9.73
2023-02-22T06:45:05.810Z,8.45
2023-02-22T06:47:32.530Z,8.30
2023-02-22T06:50:01.043Z,10.88
2023-02-22T06:52:27.723Z,11.90
2023-02-22T06:54:54.358Z,11.68
2023-02-22T06:57:21.038Z,11.98
2023-02-22T06:59:47.706Z,11.02
2023-02-22T07:02:15.048Z,10.68
2023-02-22T07:04:43.561Z,10.27
2023-02-22T07:07:10.686Z,9.65
2023-02-22T07:09:37.367Z,10.02
2023-02-22T07:12:04.120Z,16.08
2023-02-22T07:14:30.745Z,8.98
2023-02-22T07:16:57.361Z,7.07
2023-02-22T07:19:24.877Z,5.75
2023-02-22T07:21:57.033Z,7.53
2023-02-22T07:24:23.580Z,11.43
2023-02-22T07:26:50.138Z,9.02
2023-02-22T07:29:16.780Z,8.40
2023-02-22T07:31:43.433Z,9.60
2023-02-22T07:34:10.053Z,9.63
2023-02-22T07:36:36.604Z,6.95
2023-02-22T07:39:03.487Z,6.35
2023-02-22T07:41:30.119Z,5.57
2023-02-22T07:43:56.856Z,7.00
2023-02-22T07:46:23.455Z,6.05
2023-02-22T07:48:50.057Z,9.77
2023-02-22T07:51:18.223Z,8.30
2023-02-22T07:53:45.261Z,10.20
2023-02-22T07:56:11.982Z,9.32
2023-02-22T07:58:38.694Z,9.93
2023-02-22T08:01:05.547Z,9.30
2023-02-22T08:03:38.073Z,9.68
2023-02-22T08:06:06.614Z,9.07
2023-02-22T08:08:33.220Z,9.50
2023-02-22T08:10:59.870Z,9.98
2023-02-22T08:13:26.548Z,10.43
2023-02-22T08:15:54.457Z,11.43
2023-02-22T08:18:22.330Z,8.35
2023-02-22T08:20:52.129Z,9.02
2023-02-22T08:23:20.855Z,9.30
2023-02-22T08:25:47.473Z,9.70
2023-02-22T08:28:17.245Z,10.07
2023-02-22T08:30:44.061Z,9.63
2023-02-22T08:33:14.640Z,8.45
2023-02-22T08:35:41.429Z,9.13
2023-02-22T08:38:15.065Z,9.90
2023-02-22T08:40:41.658Z,8.65
2023-02-22T08:43:08.458Z,10.55
2023-02-22T08:45:35.133Z,9.95
2023-02-22T08:48:01.761Z,8.50
2023-02-22T08:50:31.140Z,9.82
2023-02-22T08:53:00.029Z,9.52
2023-02-22T08:55:32.301Z,9.52
2023-02-22T08:58:01.496Z,8.63
2023-02-22T09:00:30.753Z,8.52
2023-02-22T09:02:57.349Z,8.13
2023-02-22T09:05:23.978Z,8.45
2023-02-22T09:07:50.702Z,8.43
2023-02-22T09:10:21.003Z,8.18
2023-02-22T09:12:47.623Z,6.90
2023-02-22T09:15:15.498Z,5.75
2023-02-22T09:17:42.257Z,5.80
2023-02-22T09:20:10.129Z,5.32
2023-02-22T09:22:36.745Z,4.30
2023-02-22T09:25:15.849Z,4.88
2023-02-22T09:27:44.175Z,5.22
2023-02-22T09:30:34.234Z,5.25
2023-02-22T09:33:13.011Z,3.95
2023-02-22T09:35:46.489Z,4.13
2023-02-22T09:38:16.025Z,4.15
2023-02-22T09:40:54.364Z,4.38
2023-02-22T09:43:33.248Z,4.13
2023-02-22T09:46:21.441Z,3.47
2023-02-22T09:48:57.945Z,3.58
2023-02-22T09:51:29.037Z,4.35
2023-02-22T09:54:00.935Z,3.53
2023-02-22T09:56:29.989Z,3.70
2023-02-22T09:59:03.766Z,3.95
2023-02-22T10:01:39.147Z,3.50
2023-02-22T10:04:22.136Z,3.58
2023-02-22T10:07:15.770Z,4.03
2023-02-22T10:09:43.575Z,3.55
2023-02-22T10:12:53.316Z,4.28
2023-02-22T10:15:37.992Z,3.40
2023-02-22T10:18:26.334Z,3.03
2023-02-22T10:21:14.555Z,3.25
2023-02-22T10:23:55.739Z,3.20
2023-02-22T10:26:42.791Z,4.13
2023-02-22T10:29:12.338Z,4.15
2023-02-22T10:31:46.407Z,3.10
2023-02-22T10:34:17.167Z,3.90
2023-02-22T10:36:47.774Z,3.58
2023-02-22T10:39:35.257Z,3.38
2023-02-22T10:42:08.289Z,3.55
2023-02-22T10:44:40.602Z,3.72
2023-02-22T10:47:11.463Z,3.17
2023-02-22T10:49:42.333Z,3.53
2023-02-22T10:52:30.228Z,3.55
2023-02-22T10:55:14.033Z,3.78
2023-02-22T10:57:44.568Z,3.45
2023-02-22T11:00:26.349Z,3.42
2023-02-22T11:02:56.244Z,3.20
2023-02-22T11:05:38.486Z,2.78
2023-02-22T11:10:43.355Z,2.78
2023-02-22T11:13:34.152Z,2.17
2023-02-22T11:16:19.254Z,1.95
2023-02-22T11:18:47.322Z,1.98
2023-02-22T11:21:22.835Z,1.80
2023-02-22T11:23:50.421Z,1.80
2023-02-22T11:26:20.468Z,2.15
2023-02-22T11:28:56.228Z,2.25
2023-02-22T11:31:32.121Z,2.40
2023-02-22T11:34:03.937Z,2.20
2023-02-22T11:36:40.607Z,2.47
2023-02-22T11:39:22.716Z,2.38
2023-02-22T11:44:30.991Z,2.03
2023-02-22T11:47:06.779Z,2.05
2023-02-22T11:49:38.989Z,1.67
2023-02-22T11:52:29.144Z,2.00
2023-02-22T11:54:58.672Z,1.60
2023-02-22T11:57:37.071Z,1.70
2023-02-22T12:00:07.675Z,2.05
2023-02-22T12:03:10.266Z,1.25
2023-02-22T12:05:40.607Z,2.05
2023-02-22T12:08:20.074Z,1.52
2023-02-22T12:11:18.314Z,1.50
2023-02-22T12:14:12.801Z,1.30
2023-02-22T12:16:50.909Z,1.45
2023-02-22T12:19:22.128Z,1.20
2023-02-22T12:21:56.568Z,1.30
2023-02-22T12:24:30.513Z,1.75
2023-02-22T12:27:02.202Z,1.40
2023-02-22T12:29:38.516Z,2.33
2023-02-22T12:32:12.242Z,1.95
2023-02-22T12:34:47.630Z,2.05
2023-02-22T12:37:35.891Z,1.75
2023-02-22T12:40:13.561Z,2.58
2023-02-22T12:42:47.729Z,1.95
2023-02-22T12:45:40.991Z,1.88
2023-02-22T12:48:25.135Z,1.90
2023-02-22T12:51:18.608Z,2.47
2023-02-22T12:53:55.621Z,1.40
2023-02-22T12:56:31.978Z,1.90
2023-02-22T12:59:12.549Z,1.98
2023-02-22T13:01:43.046Z,1.58
2023-02-22T13:04:20.611Z,2.28
2023-02-22T13:07:04.803Z,1.73
2023-02-22T13:09:43.156Z,1.48
2023-02-22T13:12:36.370Z,1.60
2023-02-22T13:15:25.790Z,1.65
2023-02-22T13:18:25.474Z,1.40
2023-02-22T13:21:28.029Z,2.20
2023-02-22T13:26:45.430Z,2.53
2023-02-22T13:29:17.993Z,1.63
2023-02-22T13:32:09.634Z,2.17
2023-02-22T13:35:21.479Z,3.53
2023-02-22T13:38:25.288Z,2.67
2023-02-22T13:41:12.126Z,2.75
2023-02-22T13:43:41.504Z,2.20
2023-02-22T13:46:08.123Z,2.10
2023-02-22T13:48:44.892Z,1.90
2023-02-22T13:51:33.005Z,2.38
2023-02-22T13:54:09.529Z,2.50
2023-02-22T13:56:36.303Z,2.25
2023-02-22T13:59:04.790Z,1.98
2023-02-22T14:01:49.122Z,2.15
2023-02-22T14:04:42.281Z,3.75
2023-02-22T14:07:25.137Z,2.33
2023-02-22T14:09:56.570Z,2.15
2023-02-22T14:12:35.084Z,3.25
2023-02-22T14:15:27.769Z,1.80
2023-02-22T14:18:01.155Z,2.75
2023-02-22T14:20:35.150Z,2.88
2023-02-22T14:23:43.122Z,3.72
2023-02-22T14:26:31.749Z,3.08
2023-02-22T14:29:21.725Z,2.15
2023-02-22T14:31:50.067Z,2.40
2023-02-22T14:34:18.948Z,2.40
2023-02-22T14:36:54.615Z,2.08
2023-02-22T14:39:39.473Z,2.53
2023-02-22T14:42:08.358Z,4.25
2023-02-22T14:44:41.960Z,3.10
2023-02-22T14:47:20.150Z,3.53
2023-02-22T14:49:49.492Z,3.30
2023-02-22T14:52:24.474Z,4.85
2023-02-22T14:55:17.808Z,4.10
2023-02-22T14:57:48.420Z,3.50
2023-02-22T15:00:23.249Z,3.00
2023-02-22T15:02:57.346Z,3.45
2023-02-22T15:05:24.148Z,3.65
2023-02-22T15:07:56.466Z,3.80
2023-02-22T15:10:38.644Z,3.53
2023-02-22T15:15:47.456Z,3.60
2023-02-22T15:18:43.200Z,3.83
2023-02-22T15:21:17.847Z,3.67
2023-02-22T15:23:55.201Z,3.40
2023-02-22T15:26:37.434Z,4.00
2023-02-22T15:31:48.307Z,4.63
2023-02-22T15:34:15.377Z,4.57
2023-02-22T15:36:43.633Z,3.67
2023-02-22T15:39:25.645Z,4.15
2023-02-22T15:42:19.375Z,3.30
2023-02-22T15:44:48.023Z,4.40
2023-02-22T15:47:27.480Z,3.97
2023-02-22T15:50:25.953Z,4.60
2023-02-22T15:53:00.732Z,4.00
2023-02-22T15:55:32.655Z,4.85
2023-02-22T15:58:15.997Z,4.13
2023-02-22T16:00:51.276Z,4.18
2023-02-22T16:03:28.292Z,4.40
2023-02-22T16:05:57.062Z,3.97
2023-02-22T16:08:31.250Z,4.68
2023-02-22T16:11:35.224Z,4.38
2023-02-22T16:14:05.942Z,5.18
2023-02-22T16:16:35.549Z,6.53
2023-02-22T16:19:37.262Z,13.88
2023-02-22T16:22:10.382Z,16.97
2023-02-22T16:24:37.531Z,16.83
2023-02-22T16:27:13.041Z,17.67
2023-02-22T16:29:39.744Z,17.52
2023-02-22T16:32:06.519Z,11.00
2023-02-22T16:34:33.146Z,6.25
2023-02-22T16:36:59.738Z,7.18
2023-02-22T16:39:27.640Z,5.68
2023-02-22T16:41:57.012Z,5.60
2023-02-22T16:44:27.438Z,5.55
2023-02-22T16:46:59.772Z,8.25
2023-02-22T16:49:26.669Z,6.85
2023-02-22T16:51:56.080Z,6.10
2023-02-22T16:54:29.431Z,6.05
2023-02-22T16:56:57.601Z,7.55
2023-02-22T16:59:24.167Z,7.55
2023-02-22T17:01:50.873Z,9.77
2023-02-22T17:04:28.772Z,8.95
2023-02-22T17:06:55.379Z,10.98
2023-02-22T17:09:22.215Z,9.63
2023-02-22T17:11:51.511Z,9.73
2023-02-22T17:14:23.162Z,11.30
2023-02-22T17:16:53.125Z,10.55
2023-02-22T17:19:22.802Z,9.35
2023-02-22T17:21:49.905Z,9.70
2023-02-22T17:24:29.233Z,10.27
2023-02-22T17:26:57.523Z,9.52
2023-02-22T17:29:24.484Z,10.10
2023-02-22T17:31:52.591Z,10.73
2023-02-22T17:34:19.288Z,9.23
2023-02-22T17:36:46.088Z,9.07
2023-02-22T17:39:13.564Z,10.18
2023-02-22T17:41:40.802Z,8.57
2023-02-22T17:44:07.728Z,12.77
2023-02-22T17:46:36.137Z,12.25
2023-02-22T17:49:03.413Z,11.57
2023-02-22T17:51:30.077Z,12.25
2023-02-22T17:53:56.674Z,12.63
2023-02-22T17:56:23.312Z,13.07
2023-02-22T17:58:53.607Z,11.02
2023-02-22T18:01:29.385Z,14.07
2023-02-22T18:04:01.447Z,13.32
2023-02-22T18:06:32.717Z,11.95
2023-02-22T18:09:00.839Z,10.90
2023-02-22T18:11:28.971Z,9.85
2023-02-22T18:13:57.202Z,9.60
2023-02-22T18:16:27.750Z,9.07
2023-02-22T18:18:55.779Z,9.40
2023-02-22T18:21:23.552Z,9.60
2023-02-22T18:23:50.204Z,11.07
2023-02-22T18:26:19.890Z,10.20
2023-02-22T18:28:48.741Z,10.65
2023-02-22T18:31:20.325Z,10.40
2023-02-22T18:33:49.600Z,9.50
2023-02-22T18:36:17.630Z,9.75
2023-02-22T18:38:44.976Z,9.07
2023-02-22T18:41:14.231Z,10.50
2023-02-22T18:43:41.064Z,9.10
2023-02-22T18:46:14.432Z,8.55
2023-02-22T18:48:41.189Z,8.88
2023-02-22T18:51:10.744Z,9.45
2023-02-22T18:53:39.197Z,8.55
2023-02-22T18:56:08.585Z,8.95
2023-02-22T18:58:36.160Z,9.68
2023-02-22T19:01:03.855Z,9.65
2023-02-22T19:03:30.645Z,9.10
2023-02-22T19:06:06.640Z,9.20
2023-02-22T19:08:33.247Z,8.63
2023-02-22T19:11:04.566Z,6.43
2023-02-22T19:16:02.486Z,8.82
2023-02-22T19:18:30.722Z,7.63
2023-02-22T19:21:02.437Z,9.00
2023-02-22T19:23:34.234Z,6.95
2023-02-22T19:26:02.432Z,7.30
2023-02-22T19:28:34.068Z,8.05
2023-02-22T19:31:19.339Z,8.25
2023-02-22T19:33:50.974Z,7.45
2023-02-22T19:36:18.810Z,7.22
2023-02-22T19:38:45.627Z,8.35
2023-02-22T19:41:21.865Z,8.23
2023-02-22T19:43:50.612Z,7.32
2023-02-22T19:46:21.459Z,6.72
2023-02-22T19:48:52.490Z,8.23
2023-02-22T19:51:21.269Z,8.00
2023-02-22T19:53:47.925Z,9.02
2023-02-22T19:56:17.544Z,11.52
2023-02-22T19:58:46.200Z,13.57
2023-02-22T20:01:13.367Z,14.10
2023-02-22T20:03:42.140Z,14.52
2023-02-22T20:06:10.617Z,13.73
2023-02-22T20:08:42.139Z,13.45
2023-02-22T20:11:10.632Z,13.27
2023-02-22T20:13:41.253Z,13.43
2023-02-22T20:16:09.978Z,12.55
2023-02-22T20:18:37.093Z,13.00
2023-02-22T20:21:09.326Z,14.10
2023-02-22T20:26:02.969Z,11.88
2023-02-22T20:28:30.019Z,13.48
2023-02-22T20:30:56.645Z,12.43
2023-02-22T20:33:23.722Z,11.80
2023-02-22T20:35:50.405Z,11.35
2023-02-22T20:38:19.289Z,11.15
2023-02-22T20:40:46.867Z,8.35
2023-02-22T20:43:13.549Z,7.82
2023-02-22T20:45:40.236Z,9.20
2023-02-22T20:48:06.966Z,7.78
2023-02-22T20:50:35.444Z,7.32
2023-02-22T20:53:02.058Z,8.07
2023-02-22T20:55:28.784Z,8.70
2023-02-22T20:57:55.363Z,7.70
2023-02-22T21:00:22.161Z,7.30
2023-02-22T21:02:48.830Z,8.35
2023-02-22T21:05:15.611Z,8.32
2023-02-22T21:07:42.386Z,8.98
2023-02-22T21:10:09.146Z,9.02
2023-02-22T21:12:35.984Z,9.93
2023-02-22T21:15:02.721Z,10.32
2023-02-22T21:17:30.870Z,9.38
2023-02-22T21:19:58.469Z,10.32
2023-02-22T21:22:25.725Z,11.07
2023-02-22T21:24:52.379Z,9.80
2023-02-22T21:27:19.147Z,10.40
2023-02-22T21:29:45.816Z,9.63
2023-02-22T21:32:13.803Z,9.65
2023-02-22T21:34:40.818Z,8.30
2023-02-22T21:37:08.338Z,11.25
2023-02-22T21:39:35.488Z,9.68
2023-02-22T21:42:02.667Z,10.35
2023-02-22T21:44:30.056Z,9.25
2023-02-22T21:46:57.245Z,10.70
2023-02-22T21:49:25.046Z,11.20
2023-02-22T21:51:52.626Z,10.52
2023-02-22T21:54:19.852Z,10.63
2023-02-22T21:56:46.618Z,10.93
2023-02-22T21:59:18.898Z,10.25
2023-02-22T22:04:19.054Z,9.93
2023-02-22T22:06:51.178Z,13.27
2023-02-22T22:09:18.640Z,11.63
2023-02-22T22:12:00.505Z,12.57
2023-02-22T22:14:28.187Z,14.00
2023-02-22T22:17:00.275Z,19.30
2023-02-22T22:19:29.366Z,24.98
2023-02-22T22:21:57.456Z,25.95
2023-02-22T22:24:24.905Z,25.30
2023-02-22T22:26:54.621Z,25.60
2023-02-22T22:29:23.738Z,20.02
2023-02-22T22:31:51.736Z,25.77
2023-02-22T22:34:19.502Z,23.15
2023-02-22T22:36:46.757Z,23.13
2023-02-22T22:39:13.822Z,24.98
2023-02-22T22:41:44.110Z,22.45
2023-02-22T22:44:12.224Z,22.55
2023-02-22T22:46:41.832Z,19.20
2023-02-22T22:49:12.739Z,21.73
2023-02-22T22:51:42.943Z,21.55
2023-02-22T22:54:10.481Z,19.42
2023-02-22T22:56:38.685Z,21.70
2023-02-22T22:59:07.838Z,20.30
2023-02-22T23:01:39.412Z,21.70
2023-02-22T23:04:09.469Z,22.02
2023-02-22T23:06:41.738Z,20.52
2023-02-22T23:11:53.800Z,19.48
2023-02-22T23:14:26.651Z,21.10
2023-02-22T23:17:03.222Z,19.73
2023-02-22T23:19:31.085Z,18.42
2023-02-22T23:21:59.210Z,15.88
2023-02-22T23:24:29.070Z,16.20
2023-02-22T23:26:59.929Z,16.40
2023-02-22T23:29:28.798Z,15.68
2023-02-22T23:31:55.862Z,16.83
2023-02-22T23:34:23.241Z,15.38
2023-02-22T23:36:54.253Z,13.27
2023-02-22T23:39:22.458Z,11.93
2023-02-22T23:41:59.412Z,12.43
2023-02-22T23:44:27.483Z,11.63
2023-02-22T23:46:57.319Z,10.38
2023-02-22T23:49:27.154Z,10.50
2023-02-22T23:51:54.524Z,9.82
2023-02-22T23:54:21.689Z,10.75
2023-02-22T23:56:57.627Z,9.55
2023-02-22T23:59:28.571Z,12.35
